Orbital elements of N-1 DEB
| Launched | 2 September 1982 |
| Flight ended | – |
| Launch site | Tanegashima Space Center, Japan |
| Owner | Japan |
| NORAD ID | 13510 |
| Date fetched |
Epoch osculation |
Inc. [°] |
Ecc. | RA asc node [hr] |
Arg Peri. [°] |
Mean anom [°] |
Mean motion [rev/day] |
Abs. mag |
| Date fetched |
Epoch osculation |
Inc. [°] |
Ecc. | RA asc node [hr] |
Arg Peri. [°] |
Mean anom [°] |
Mean motion [rev/day] |
Abs. mag |
| 2026 May 08 17:57 | 2026 May 05 06:39:40 | 44.5753 | 0.01665 | 6.5972 | 230.6301 | 263.6208 | 13.59333 | – |
| 2026 May 07 17:58 | 2026 May 05 06:39:40 | 44.5753 | 0.01665 | 6.5972 | 230.6301 | 263.6208 | 13.59333 | – |
| 2026 May 06 17:57 | 2026 May 05 06:39:40 | 44.5753 | 0.01665 | 6.5972 | 230.6301 | 263.6208 | 13.59333 | – |
| 2026 May 05 17:57 | 2026 May 05 06:39:40 | 44.5753 | 0.01665 | 6.5972 | 230.6301 | 263.6208 | 13.59333 | – |
| 2026 May 04 17:57 | 2026 Apr 28 08:51:02 | 44.5744 | 0.01665 | 8.5276 | 199.4878 | 263.6208 | 13.59333 | – |
| 2026 May 03 17:57 | 2026 Apr 28 08:51:02 | 44.5744 | 0.01665 | 8.5276 | 199.4878 | 263.6208 | 13.59333 | – |
| 2026 May 02 17:57 | 2026 Apr 28 08:51:02 | 44.5744 | 0.01665 | 8.5276 | 199.4878 | 263.6208 | 13.59333 | – |
| 2026 May 01 17:56 | 2026 Apr 28 08:51:02 | 44.5744 | 0.01665 | 8.5276 | 199.4878 | 263.6208 | 13.59333 | – |
| 2026 Apr 30 17:56 | 2026 Apr 28 08:51:02 | 44.5744 | 0.01665 | 8.5276 | 199.4878 | 263.6208 | 13.59333 | – |
| 2026 Apr 29 17:57 | 2026 Apr 24 03:52:56 | 44.5744 | 0.01665 | 9.7032 | 180.4562 | 263.6208 | 13.59333 | – |
| 2026 Apr 28 17:56 | 2026 Apr 24 03:52:56 | 44.5744 | 0.01665 | 9.7032 | 180.4562 | 263.6208 | 13.59333 | – |
| 2026 Apr 27 17:58 | 2026 Apr 24 03:52:56 | 44.5744 | 0.01665 | 9.7032 | 180.4562 | 263.6208 | 13.59333 | – |
| 2026 Apr 26 17:58 | 2026 Apr 24 03:52:56 | 44.5744 | 0.01665 | 9.7032 | 180.4562 | 263.6208 | 13.59333 | – |
| 2026 Apr 25 17:58 | 2026 Apr 24 03:52:56 | 44.5744 | 0.01665 | 9.7032 | 180.4562 | 263.6208 | 13.59333 | – |
| 2026 Apr 24 17:59 | 2026 Apr 24 03:52:56 | 44.5744 | 0.01665 | 9.7032 | 180.4562 | 263.6208 | 13.59333 | – |
| 2026 Apr 23 17:57 | 2026 Apr 19 10:52:47 | 44.5745 | 0.01665 | 11.0188 | 159.1022 | 263.6208 | 13.59333 | – |
| 2026 Apr 22 17:57 | 2026 Apr 19 10:52:47 | 44.5745 | 0.01665 | 11.0188 | 159.1022 | 263.6208 | 13.59333 | – |
| 2026 Apr 21 17:57 | 2026 Apr 19 10:52:47 | 44.5745 | 0.01665 | 11.0188 | 159.1022 | 263.6208 | 13.59333 | – |
| 2026 Apr 20 17:57 | 2026 Apr 19 10:52:47 | 44.5745 | 0.01665 | 11.0188 | 159.1022 | 263.6208 | 13.59333 | – |
| 2026 Apr 19 17:58 | 2026 Apr 19 10:52:47 | 44.5745 | 0.01665 | 11.0188 | 159.1022 | 263.6208 | 13.59333 | – |
| 2026 Apr 18 17:56 | 2026 Apr 13 06:47:39 | 44.5745 | 0.01665 | 12.7428 | 131.0729 | 263.6208 | 13.59333 | – |
| 2026 Apr 16 17:57 | 2026 Apr 13 06:47:39 | 44.5745 | 0.01665 | 12.7428 | 131.0729 | 263.6208 | 13.59333 | – |
| 2026 Apr 14 17:57 | 2026 Apr 13 06:47:39 | 44.5745 | 0.01665 | 12.7428 | 131.0729 | 263.6208 | 13.59333 | – |
| 2026 Apr 13 17:57 | 2026 Apr 13 06:47:39 | 44.5745 | 0.01665 | 12.7428 | 131.0729 | 263.6208 | 13.59333 | – |
| 2026 Apr 12 17:57 | 2026 Apr 08 08:36:27 | 44.5746 | 0.01668 | 14.1188 | 108.6715 | 263.6208 | 13.59333 | – |
| 2026 Apr 11 17:57 | 2026 Apr 08 08:36:27 | 44.5746 | 0.01668 | 14.1188 | 108.6715 | 263.6208 | 13.59333 | – |